createdAt,value
2019-03-13T00:00:55.366Z,0
2019-03-13T00:02:07.663Z,0
2019-03-13T00:03:19.762Z,0
2019-03-13T00:04:31.955Z,0
2019-03-13T00:05:44.199Z,0
2019-03-13T00:06:56.609Z,0
2019-03-13T00:08:08.537Z,0
2019-03-13T00:09:20.863Z,0
2019-03-13T00:10:32.996Z,0
2019-03-13T00:11:45.209Z,0
2019-03-13T00:12:57.381Z,0
2019-03-13T00:14:09.523Z,0
2019-03-13T00:15:21.693Z,0
2019-03-13T00:16:33.910Z,0
2019-03-13T00:17:46.107Z,0
2019-03-13T00:18:58.278Z,0
2019-03-13T00:20:10.466Z,0
2019-03-13T00:21:22.660Z,0
2019-03-13T00:22:36.683Z,0
2019-03-13T00:23:48.209Z,0
2019-03-13T00:24:59.238Z,0
2019-03-13T00:26:11.446Z,0
2019-03-13T00:27:23.724Z,0
2019-03-13T00:28:35.899Z,0
2019-03-13T00:29:48.040Z,0
2019-03-13T00:31:00.535Z,0
2019-03-13T00:32:12.403Z,0
2019-03-13T00:33:24.593Z,0
2019-03-13T00:34:36.870Z,0
2019-03-13T00:35:49.151Z,0
2019-03-13T00:37:04.167Z,0
2019-03-13T00:38:13.388Z,0
2019-03-13T00:39:25.603Z,0
2019-03-13T00:40:37.758Z,0
2019-03-13T00:41:50.042Z,0
2019-03-13T00:43:02.253Z,0
2019-03-13T00:44:14.341Z,0
2019-03-13T00:45:26.656Z,0
2019-03-13T00:46:38.736Z,0
2019-03-13T00:47:51.127Z,0
2019-03-13T00:49:03.240Z,0
2019-03-13T00:50:15.325Z,0
2019-03-13T00:51:27.639Z,0
2019-03-13T00:52:39.703Z,0
2019-03-13T00:53:55.515Z,0
2019-03-13T00:55:08.233Z,0
2019-03-13T00:56:16.471Z,0
2019-03-13T00:57:28.542Z,0
2019-03-13T00:58:40.688Z,0
2019-03-13T00:59:52.962Z,0
2019-03-13T01:01:05.066Z,0
2019-03-13T01:02:17.400Z,0
2019-03-13T01:03:29.448Z,0
2019-03-13T01:04:41.654Z,0
2019-03-13T01:05:53.843Z,0
2019-03-13T01:07:06.148Z,0
2019-03-13T01:08:18.233Z,0
2019-03-13T01:09:30.493Z,0
2019-03-13T01:10:42.634Z,0
2019-03-13T01:11:54.903Z,0
2019-03-13T01:13:07.033Z,0
2019-03-13T01:14:19.216Z,0
2019-03-13T01:15:31.423Z,0
2019-03-13T01:16:43.667Z,0
2019-03-13T01:17:55.804Z,0
2019-03-13T01:19:08.052Z,0
2019-03-13T01:20:20.160Z,0
2019-03-13T01:21:32.439Z,0
2019-03-13T01:22:44.745Z,0
2019-03-13T01:23:56.869Z,0
2019-03-13T01:25:09.043Z,0
2019-03-13T01:26:21.143Z,0
2019-03-13T01:27:33.325Z,0
2019-03-13T01:28:45.607Z,0
2019-03-13T01:29:57.738Z,0
2019-03-13T01:31:09.904Z,0
2019-03-13T01:32:22.106Z,0
2019-03-13T01:33:34.299Z,0
2019-03-13T01:34:47.446Z,0
2019-03-13T01:35:58.808Z,0
2019-03-13T01:37:10.878Z,0
2019-03-13T01:38:23.115Z,0
2019-03-13T01:39:35.255Z,0
2019-03-13T01:40:47.515Z,0
2019-03-13T01:41:59.666Z,0
2019-03-13T01:43:11.930Z,0
2019-03-13T01:44:24.047Z,0
2019-03-13T01:45:36.229Z,0
2019-03-13T01:46:48.425Z,0
2019-03-13T01:48:00.716Z,0
2019-03-13T01:49:12.889Z,0
2019-03-13T01:50:25.034Z,0
2019-03-13T01:51:37.244Z,0
2019-03-13T01:52:49.466Z,0
2019-03-13T01:54:01.685Z,0
2019-03-13T01:55:13.803Z,0
2019-03-13T01:56:26.133Z,0
2019-03-13T01:57:38.305Z,0
2019-03-13T01:58:50.383Z,0
2019-03-13T02:00:02.896Z,0
2019-03-13T02:01:14.759Z,0
2019-03-13T02:02:27.119Z,0
2019-03-13T02:03:39.209Z,0
2019-03-13T02:04:51.341Z,0
2019-03-13T02:06:03.525Z,0
2019-03-13T02:07:15.717Z,0
2019-03-13T02:08:28.684Z,0
2019-03-13T02:09:40.171Z,0
2019-03-13T02:10:52.393Z,0
2019-03-13T02:12:04.679Z,0
2019-03-13T02:13:16.689Z,0
2019-03-13T02:14:28.953Z,0
2019-03-13T02:15:41.180Z,0
2019-03-13T02:16:53.336Z,0
2019-03-13T02:18:05.465Z,0
2019-03-13T02:19:17.658Z,0
2019-03-13T02:20:29.888Z,0
2019-03-13T02:21:42.159Z,0
2019-03-13T02:22:54.246Z,0
2019-03-13T02:24:06.535Z,0
2019-03-13T02:25:18.630Z,0
2019-03-13T02:26:30.902Z,0
2019-03-13T02:27:43.021Z,0
2019-03-13T02:28:55.299Z,0
2019-03-13T02:30:07.500Z,0
2019-03-13T02:31:19.679Z,0
2019-03-13T02:32:31.791Z,0
2019-03-13T02:33:44.008Z,0
2019-03-13T02:34:56.228Z,0
2019-03-13T02:36:08.485Z,0
2019-03-13T02:37:20.573Z,0
2019-03-13T02:38:32.787Z,0
2019-03-13T02:39:45.066Z,0
2019-03-13T02:40:57.251Z,0
2019-03-13T02:42:09.457Z,0
2019-03-13T02:43:21.611Z,0
2019-03-13T02:44:33.838Z,0
2019-03-13T02:45:46.052Z,0
2019-03-13T02:46:58.222Z,0
2019-03-13T02:48:10.467Z,0
2019-03-13T02:49:22.599Z,0
2019-03-13T02:50:34.739Z,0
2019-03-13T02:51:46.909Z,0
2019-03-13T02:52:59.172Z,0
2019-03-13T02:54:11.278Z,0
2019-03-13T02:55:23.579Z,0
2019-03-13T02:56:35.687Z,0
2019-03-13T02:57:47.878Z,0
2019-03-13T02:59:00.149Z,0
2019-03-13T03:00:12.374Z,0
2019-03-13T03:01:24.478Z,0
2019-03-13T03:02:36.755Z,0
2019-03-13T03:03:48.838Z,0
2019-03-13T03:05:01.127Z,0
2019-03-13T03:06:13.250Z,0
2019-03-13T03:07:25.428Z,0
2019-03-13T03:08:37.689Z,0
2019-03-13T03:09:49.813Z,0
2019-03-13T03:11:02.098Z,0
2019-03-13T03:12:14.306Z,0
2019-03-13T03:13:26.393Z,0
2019-03-13T03:14:38.661Z,0
2019-03-13T03:15:50.773Z,0
2019-03-13T03:17:02.989Z,0
2019-03-13T03:18:15.176Z,0
2019-03-13T03:19:27.344Z,0
2019-03-13T03:20:39.634Z,0
2019-03-13T03:21:51.904Z,0
2019-03-13T03:23:04.014Z,0
2019-03-13T03:24:16.195Z,0
2019-03-13T03:25:28.339Z,0
2019-03-13T03:26:40.576Z,0
2019-03-13T03:27:52.789Z,0
2019-03-13T03:29:04.972Z,0
2019-03-13T03:30:17.246Z,0
2019-03-13T03:31:29.296Z,0
2019-03-13T03:32:41.594Z,0
2019-03-13T03:33:53.678Z,0
2019-03-13T03:35:05.914Z,0
2019-03-13T03:36:22.956Z,0
2019-03-13T03:37:30.256Z,0
2019-03-13T03:38:42.454Z,0
2019-03-13T03:39:54.677Z,0
2019-03-13T03:41:06.860Z,0
2019-03-13T03:42:19.071Z,0
2019-03-13T03:43:31.382Z,0
2019-03-13T03:44:43.460Z,0
2019-03-13T03:45:55.628Z,0
2019-03-13T03:47:10.905Z,0
2019-03-13T03:48:20.119Z,0
2019-03-13T03:49:32.414Z,0
2019-03-13T03:50:44.483Z,0
2019-03-13T03:51:56.603Z,0
2019-03-13T03:53:08.803Z,0
2019-03-13T03:54:21.088Z,0
2019-03-13T03:55:33.165Z,0
2019-03-13T03:56:45.520Z,0
2019-03-13T03:57:57.771Z,0
2019-03-13T03:59:13.619Z,0
2019-03-13T04:00:24.874Z,0
2019-03-13T04:01:35.763Z,0
2019-03-13T04:02:46.427Z,0
2019-03-13T04:03:58.604Z,0
2019-03-13T04:05:10.741Z,0
2019-03-13T04:06:22.992Z,0
2019-03-13T04:07:35.102Z,0
2019-03-13T04:08:47.437Z,0
2019-03-13T04:09:59.490Z,0
2019-03-13T04:11:16.103Z,0
2019-03-13T04:12:24.005Z,0
2019-03-13T04:13:36.151Z,0
2019-03-13T04:14:48.364Z,0
2019-03-13T04:16:00.478Z,0
2019-03-13T04:17:12.670Z,0
2019-03-13T04:18:24.890Z,0
2019-03-13T04:19:37.080Z,0
2019-03-13T04:20:49.266Z,0
2019-03-13T04:22:01.542Z,0
2019-03-13T04:23:13.620Z,0
2019-03-13T04:24:25.935Z,0
2019-03-13T04:25:38.249Z,0
2019-03-13T04:26:50.354Z,0
2019-03-13T04:28:02.472Z,0
2019-03-13T04:29:14.610Z,0
2019-03-13T04:30:26.836Z,0
2019-03-13T04:31:38.980Z,0
2019-03-13T04:32:51.185Z,0
2019-03-13T04:34:03.541Z,0
2019-03-13T04:35:15.568Z,0
2019-03-13T04:36:27.901Z,0
2019-03-13T04:37:39.956Z,0
2019-03-13T04:38:52.155Z,0
2019-03-13T04:40:04.645Z,0
2019-03-13T04:41:16.643Z,0
2019-03-13T04:42:31.776Z,0
2019-03-13T04:43:41.006Z,0
2019-03-13T04:44:53.117Z,0
2019-03-13T04:46:05.387Z,0
2019-03-13T04:47:17.554Z,0
2019-03-13T04:48:29.781Z,0
2019-03-13T04:49:41.959Z,0
2019-03-13T04:50:54.181Z,0
2019-03-13T04:52:06.289Z,0
2019-03-13T04:53:18.568Z,0
2019-03-13T04:54:30.670Z,0
2019-03-13T04:55:42.853Z,0
2019-03-13T04:56:55.106Z,0
2019-03-13T04:58:07.243Z,0
2019-03-13T04:59:19.438Z,0
2019-03-13T05:00:31.645Z,0
2019-03-13T05:01:43.846Z,0
2019-03-13T05:02:56.024Z,0
2019-03-13T05:04:08.216Z,0
2019-03-13T05:05:20.410Z,0
2019-03-13T05:06:32.718Z,0
2019-03-13T05:07:45.432Z,0
2019-03-13T05:08:57.070Z,0
2019-03-13T05:10:09.183Z,0
2019-03-13T05:11:21.400Z,0
2019-03-13T05:12:33.687Z,0
2019-03-13T05:13:45.762Z,0
2019-03-13T05:14:58.039Z,0
2019-03-13T05:16:10.154Z,0
2019-03-13T05:17:22.353Z,0
2019-03-13T05:18:34.537Z,0
2019-03-13T05:19:46.737Z,0
2019-03-13T05:20:58.976Z,0
2019-03-13T05:22:11.122Z,0
2019-03-13T05:23:23.943Z,0
2019-03-13T05:24:35.668Z,0
2019-03-13T05:25:47.769Z,4
2019-03-13T05:26:59.939Z,4
2019-03-13T05:28:12.119Z,4
2019-03-13T05:29:24.284Z,4
2019-03-13T05:30:36.474Z,8
2019-03-13T05:31:48.756Z,12
2019-03-13T05:33:00.956Z,8
2019-03-13T05:34:13.120Z,12
2019-03-13T05:35:25.469Z,16
2019-03-13T05:36:37.540Z,16
2019-03-13T05:37:49.714Z,16
2019-03-13T05:39:01.854Z,16
2019-03-13T05:40:14.202Z,16
2019-03-13T05:41:26.243Z,16
2019-03-13T05:42:38.516Z,20
2019-03-13T05:43:50.667Z,24
2019-03-13T05:45:02.825Z,32
2019-03-13T05:46:15.088Z,32
2019-03-13T05:47:27.192Z,44
2019-03-13T05:48:39.583Z,48
2019-03-13T05:49:51.577Z,60
2019-03-13T05:51:03.770Z,80
2019-03-13T05:52:15.989Z,104
2019-03-13T05:53:28.259Z,116
2019-03-13T05:54:40.440Z,148
2019-03-13T05:55:52.654Z,208
2019-03-13T05:57:04.748Z,260
2019-03-13T05:58:16.942Z,332
2019-03-13T05:59:29.224Z,324
2019-03-13T06:00:41.539Z,320
2019-03-13T06:01:53.639Z,352
2019-03-13T06:03:05.806Z,416
2019-03-13T06:04:17.969Z,468
2019-03-13T06:05:30.110Z,476
2019-03-13T06:06:42.333Z,408
2019-03-13T06:07:54.561Z,364
2019-03-13T06:09:06.725Z,340
2019-03-13T06:10:18.918Z,372
2019-03-13T06:11:31.068Z,296
2019-03-13T06:12:43.368Z,232
2019-03-13T06:13:55.542Z,268
2019-03-13T06:15:07.732Z,292
2019-03-13T06:16:19.921Z,376
2019-03-13T06:17:32.050Z,336
2019-03-13T06:18:44.245Z,392
2019-03-13T06:19:56.421Z,404
2019-03-13T06:21:08.616Z,380
2019-03-13T06:22:20.836Z,504
2019-03-13T06:23:33.081Z,432
2019-03-13T06:24:45.369Z,492
2019-03-13T06:25:57.417Z,504
2019-03-13T06:27:09.705Z,496
2019-03-13T06:28:21.784Z,536
2019-03-13T06:29:34.037Z,712
2019-03-13T06:30:46.342Z,812
2019-03-13T06:31:58.365Z,1068
2019-03-13T06:33:11.452Z,1016
2019-03-13T06:34:22.748Z,1196
2019-03-13T06:35:35.038Z,1736
2019-03-13T06:36:47.465Z,1488
2019-03-13T06:37:59.326Z,984
2019-03-13T06:39:11.529Z,952
2019-03-13T06:40:23.791Z,876
2019-03-13T06:41:36.129Z,1076
2019-03-13T06:42:48.178Z,1044
2019-03-13T06:44:00.358Z,1064
2019-03-13T06:45:12.596Z,1080
2019-03-13T06:46:24.713Z,884
2019-03-13T06:47:36.933Z,768
2019-03-13T06:48:49.178Z,828
2019-03-13T06:50:01.529Z,784
2019-03-13T06:51:13.470Z,708
2019-03-13T06:52:25.656Z,796
2019-03-13T06:53:37.967Z,896
2019-03-13T06:54:50.065Z,1152
2019-03-13T06:56:02.272Z,992
2019-03-13T06:57:14.446Z,900
2019-03-13T06:58:26.704Z,1136
2019-03-13T06:59:38.817Z,1208
2019-03-13T07:00:51.103Z,1108
2019-03-13T07:02:03.229Z,1048
2019-03-13T07:03:15.477Z,988
2019-03-13T07:04:27.620Z,808
2019-03-13T07:05:39.794Z,1008
2019-03-13T07:06:52.104Z,932
2019-03-13T07:08:04.305Z,1316
2019-03-13T07:09:16.639Z,1352
2019-03-13T07:10:28.682Z,1008
2019-03-13T07:11:40.915Z,884
2019-03-13T07:12:53.120Z,908
2019-03-13T07:14:05.238Z,948
2019-03-13T07:15:17.368Z,1196
2019-03-13T07:16:29.602Z,1212
2019-03-13T07:17:41.906Z,1192
2019-03-13T07:18:53.923Z,1844
2019-03-13T07:20:06.164Z,2056
2019-03-13T07:21:18.318Z,1760
2019-03-13T07:22:30.584Z,1596
2019-03-13T07:23:42.804Z,1736
2019-03-13T07:24:54.990Z,2120
2019-03-13T07:26:07.104Z,1880
2019-03-13T07:27:19.283Z,2056
2019-03-13T07:28:31.516Z,2100
2019-03-13T07:29:43.769Z,1892
2019-03-13T07:30:55.934Z,1912
2019-03-13T07:32:08.050Z,2056
2019-03-13T07:33:20.327Z,1960
2019-03-13T07:34:32.697Z,2280
2019-03-13T07:35:44.663Z,1976
2019-03-13T07:36:57.637Z,2176
2019-03-13T07:38:09.621Z,2124
2019-03-13T07:39:21.288Z,1832
2019-03-13T07:40:33.603Z,2048
2019-03-13T07:41:45.683Z,2040
2019-03-13T07:42:57.808Z,1828
2019-03-13T07:44:10.000Z,1616
2019-03-13T07:45:22.175Z,1480
2019-03-13T07:46:34.451Z,1400
2019-03-13T07:47:46.652Z,1748
2019-03-13T07:48:58.958Z,2212
2019-03-13T07:50:11.071Z,3140
2019-03-13T07:51:23.172Z,2968
2019-03-13T07:52:35.424Z,3076
2019-03-13T07:53:48.155Z,4228
2019-03-13T07:54:59.839Z,5588
2019-03-13T07:56:11.929Z,6980
2019-03-13T07:57:24.122Z,7212
2019-03-13T07:58:36.412Z,6996
2019-03-13T07:59:48.544Z,6744
2019-03-13T08:01:00.987Z,6392
2019-03-13T08:02:12.996Z,6684
2019-03-13T08:03:25.166Z,4676
2019-03-13T08:04:37.359Z,6160
2019-03-13T08:05:49.482Z,7604
2019-03-13T08:07:04.203Z,7084
2019-03-13T08:08:14.016Z,5776
2019-03-13T08:09:26.060Z,5260
2019-03-13T08:10:38.326Z,5424
2019-03-13T08:11:50.443Z,5284
2019-03-13T08:13:02.780Z,5072
2019-03-13T08:14:14.915Z,4620
2019-03-13T08:15:27.029Z,4600
2019-03-13T08:16:39.341Z,4708
2019-03-13T08:17:51.417Z,5740
2019-03-13T08:19:03.613Z,4872
2019-03-13T08:20:15.803Z,3380
2019-03-13T08:21:28.030Z,4072
2019-03-13T08:22:40.261Z,4180
2019-03-13T08:23:52.397Z,3824
2019-03-13T08:25:04.774Z,5020
2019-03-13T08:26:17.777Z,5740
2019-03-13T08:27:28.982Z,7300
2019-03-13T08:28:41.194Z,7456
2019-03-13T08:29:53.458Z,7052
2019-03-13T08:31:05.552Z,4908
2019-03-13T08:32:17.750Z,3992
2019-03-13T08:33:29.960Z,4228
2019-03-13T08:34:42.123Z,4168
2019-03-13T08:35:54.320Z,4152
2019-03-13T08:37:06.717Z,3300
2019-03-13T08:38:18.892Z,3252
2019-03-13T08:39:30.908Z,3844
2019-03-13T08:40:43.184Z,3132
2019-03-13T08:41:55.376Z,4320
2019-03-13T08:43:07.591Z,4844
2019-03-13T08:44:19.750Z,3628
2019-03-13T08:45:31.952Z,4104
2019-03-13T08:46:44.138Z,4800
2019-03-13T08:47:56.261Z,4204
2019-03-13T08:49:08.567Z,3488
2019-03-13T08:50:20.749Z,3296
2019-03-13T08:51:32.863Z,2892
2019-03-13T08:52:45.042Z,2500
2019-03-13T08:53:57.344Z,2700
2019-03-13T08:55:09.534Z,3320
2019-03-13T08:56:21.648Z,4244
2019-03-13T08:57:33.981Z,4608
2019-03-13T08:58:46.035Z,4696
2019-03-13T08:59:58.236Z,4112
2019-03-13T09:01:11.778Z,3420
2019-03-13T09:02:22.709Z,4380
2019-03-13T09:03:34.800Z,3824
2019-03-13T09:04:47.002Z,3448
2019-03-13T09:05:59.268Z,2556
2019-03-13T09:07:11.399Z,2736
2019-03-13T09:08:23.658Z,2736
2019-03-13T09:09:35.791Z,3308
2019-03-13T09:10:47.978Z,2352
2019-03-13T09:12:00.263Z,2500
2019-03-13T09:13:12.469Z,2304
2019-03-13T09:14:24.560Z,2180
2019-03-13T09:15:36.757Z,2944
2019-03-13T09:16:49.073Z,2656
2019-03-13T09:18:01.219Z,3144
2019-03-13T09:19:13.388Z,3488
2019-03-13T09:20:25.621Z,2536
2019-03-13T09:21:37.830Z,1876
2019-03-13T09:22:50.007Z,1680
2019-03-13T09:24:02.132Z,1444
2019-03-13T09:25:14.448Z,1592
2019-03-13T09:26:26.527Z,2080
2019-03-13T09:27:38.789Z,2224
2019-03-13T09:28:50.914Z,3152
2019-03-13T09:30:03.190Z,3768
2019-03-13T09:31:15.387Z,3368
2019-03-13T09:32:27.492Z,3632
2019-03-13T09:33:39.774Z,3340
2019-03-13T09:34:51.882Z,3696
2019-03-13T09:36:04.110Z,3488
2019-03-13T09:37:16.482Z,4076
2019-03-13T09:38:28.484Z,3836
2019-03-13T09:39:40.737Z,3312
2019-03-13T09:40:52.911Z,3444
2019-03-13T09:42:05.076Z,2800
2019-03-13T09:43:17.278Z,2300
2019-03-13T09:44:29.553Z,2656
2019-03-13T09:45:41.663Z,2884
2019-03-13T09:46:53.831Z,2608
2019-03-13T09:48:06.027Z,4436
2019-03-13T09:49:18.407Z,4428
2019-03-13T09:50:30.442Z,6008
2019-03-13T09:51:42.730Z,5444
2019-03-13T09:52:54.834Z,4772
2019-03-13T09:54:07.076Z,3852
2019-03-13T09:55:19.239Z,2964
2019-03-13T09:56:31.461Z,3388
2019-03-13T09:57:43.790Z,2440
2019-03-13T09:58:55.782Z,2872
2019-03-13T10:00:08.931Z,3120
2019-03-13T10:01:20.357Z,3776
2019-03-13T10:02:32.545Z,4080
2019-03-13T10:03:44.584Z,4032
2019-03-13T10:04:56.796Z,3848
2019-03-13T10:06:09.072Z,4232
2019-03-13T10:07:21.175Z,4564
2019-03-13T10:08:33.402Z,4196
2019-03-13T10:09:45.539Z,3912
2019-03-13T10:10:57.934Z,3876
2019-03-13T10:12:10.002Z,6760
2019-03-13T10:13:22.227Z,4192
2019-03-13T10:14:34.329Z,3280
2019-03-13T10:15:46.611Z,4216
2019-03-13T10:16:58.907Z,5524
2019-03-13T10:18:10.919Z,5612
2019-03-13T10:19:23.095Z,4580
2019-03-13T10:20:35.301Z,8088
2019-03-13T10:21:47.552Z,6248
2019-03-13T10:22:59.687Z,5252
2019-03-13T10:24:15.226Z,4920
2019-03-13T10:25:24.200Z,6336
2019-03-13T10:26:36.380Z,4956
2019-03-13T10:27:48.553Z,5232
2019-03-13T10:29:00.685Z,5624
2019-03-13T10:30:12.876Z,4000
2019-03-13T10:31:25.139Z,3532
2019-03-13T10:32:37.341Z,2824
2019-03-13T10:33:49.449Z,3636
2019-03-13T10:35:02.442Z,3988
2019-03-13T10:36:13.953Z,4604
2019-03-13T10:37:26.211Z,5700
2019-03-13T10:38:38.271Z,4056
2019-03-13T10:39:50.452Z,3156
2019-03-13T10:41:02.670Z,2936
2019-03-13T10:42:14.824Z,3416
2019-03-13T10:43:27.006Z,3884
2019-03-13T10:44:39.291Z,4032
2019-03-13T10:45:51.488Z,4540
2019-03-13T10:47:03.613Z,5172
2019-03-13T10:48:15.789Z,3912
2019-03-13T10:49:28.327Z,3560
2019-03-13T10:50:40.182Z,4420
2019-03-13T10:51:52.376Z,4028
2019-03-13T10:53:04.704Z,4504
2019-03-13T10:54:16.775Z,5968
2019-03-13T10:55:29.045Z,5084
2019-03-13T10:56:41.221Z,4960
2019-03-13T10:57:53.353Z,4660
2019-03-13T10:59:05.634Z,4536
2019-03-13T11:00:17.792Z,3516
2019-03-13T11:01:30.066Z,3372
2019-03-13T11:02:42.139Z,3144
2019-03-13T11:03:54.333Z,3792
2019-03-13T11:05:06.600Z,4648
2019-03-13T11:06:18.732Z,4376
2019-03-13T11:07:31.137Z,3964
2019-03-13T11:08:43.218Z,4928
2019-03-13T11:09:55.318Z,3956
2019-03-13T11:11:07.575Z,3880
2019-03-13T11:12:19.702Z,5476
2019-03-13T11:13:32.209Z,4904
2019-03-13T11:14:44.113Z,3936
2019-03-13T11:15:56.283Z,3412
2019-03-13T11:17:08.587Z,3428
2019-03-13T11:18:20.688Z,3808
2019-03-13T11:19:33.104Z,3916
2019-03-13T11:20:45.060Z,4496
2019-03-13T11:21:57.655Z,5012
2019-03-13T11:23:09.452Z,4416
2019-03-13T11:24:21.721Z,3552
2019-03-13T11:25:33.962Z,3016
2019-03-13T11:26:46.145Z,3212
2019-03-13T11:27:59.215Z,3388
2019-03-13T11:29:10.434Z,3912
2019-03-13T11:30:22.635Z,3488
2019-03-13T11:31:34.827Z,3684
2019-03-13T11:32:47.105Z,3728
2019-03-13T11:33:59.221Z,3928
2019-03-13T11:35:11.413Z,3864
2019-03-13T11:36:23.607Z,4188
2019-03-13T11:37:35.904Z,4404
2019-03-13T11:38:47.990Z,5324
2019-03-13T11:40:00.202Z,5604
2019-03-13T11:41:12.489Z,6672
2019-03-13T11:42:24.594Z,5328
2019-03-13T11:43:37.049Z,6244
2019-03-13T11:44:48.965Z,6492
2019-03-13T11:46:01.213Z,5728
2019-03-13T11:47:13.390Z,7172
2019-03-13T11:48:25.562Z,7008
2019-03-13T11:49:37.934Z,5936
2019-03-13T11:50:49.965Z,5000
2019-03-13T11:52:02.307Z,5264
2019-03-13T11:53:14.358Z,6812
2019-03-13T11:54:27.001Z,5588
2019-03-13T11:55:38.856Z,4448
2019-03-13T11:56:50.958Z,3636
2019-03-13T11:58:03.137Z,3640
2019-03-13T11:59:15.319Z,4372
2019-03-13T12:00:27.574Z,3292
2019-03-13T12:01:39.829Z,3264
2019-03-13T12:02:51.993Z,4220
2019-03-13T12:04:04.107Z,3180
2019-03-13T12:05:17.224Z,3556
2019-03-13T12:06:28.533Z,3544
2019-03-13T12:07:40.783Z,2924
2019-03-13T12:08:52.955Z,2876
2019-03-13T12:10:05.181Z,3156
2019-03-13T12:11:17.366Z,3832
2019-03-13T12:12:29.499Z,3740
2019-03-13T12:13:41.816Z,4796
2019-03-13T12:14:53.930Z,3840
2019-03-13T12:16:06.068Z,2724
2019-03-13T12:17:18.329Z,2748
2019-03-13T12:18:30.517Z,2980
2019-03-13T12:19:42.644Z,2916
2019-03-13T12:20:54.919Z,2300
2019-03-13T12:22:07.075Z,2904
2019-03-13T12:23:19.477Z,3008
2019-03-13T12:24:31.650Z,3840
2019-03-13T12:25:43.727Z,5512
2019-03-13T12:26:55.905Z,5468
2019-03-13T12:28:08.001Z,3692
2019-03-13T12:29:20.282Z,2744
2019-03-13T12:30:32.504Z,2984
2019-03-13T12:31:44.594Z,2896
2019-03-13T12:32:57.789Z,2904
2019-03-13T12:34:09.167Z,3512
2019-03-13T12:35:21.273Z,3860
2019-03-13T12:36:33.475Z,4740
2019-03-13T12:37:45.675Z,5700
2019-03-13T12:38:57.764Z,5732
2019-03-13T12:40:10.061Z,6120
2019-03-13T12:41:22.267Z,6328
2019-03-13T12:42:34.364Z,4940
2019-03-13T12:43:46.729Z,5908
2019-03-13T12:44:58.748Z,4196
2019-03-13T12:46:11.002Z,2880
2019-03-13T12:47:23.166Z,2840
2019-03-13T12:48:35.357Z,3452
2019-03-13T12:49:47.696Z,4076
2019-03-13T12:50:59.710Z,5004
2019-03-13T12:52:11.908Z,3656
2019-03-13T12:53:24.175Z,2868
2019-03-13T12:54:36.321Z,2768
2019-03-13T12:55:48.494Z,3912
2019-03-13T12:57:00.831Z,3536
2019-03-13T12:58:12.925Z,4748
2019-03-13T12:59:25.176Z,6564
2019-03-13T13:00:37.339Z,6520
2019-03-13T13:01:49.569Z,3976
2019-03-13T13:03:01.758Z,5056
2019-03-13T13:04:13.866Z,4188
2019-03-13T13:05:26.703Z,2560
2019-03-13T13:06:38.406Z,2560
2019-03-13T13:07:50.541Z,2844
2019-03-13T13:09:02.752Z,4128
2019-03-13T13:10:14.929Z,2928
2019-03-13T13:11:27.041Z,2436
2019-03-13T13:12:39.495Z,3552
2019-03-13T13:13:51.542Z,4540
2019-03-13T13:15:03.716Z,4792
2019-03-13T13:16:15.813Z,4000
2019-03-13T13:17:28.048Z,3084
2019-03-13T13:18:40.211Z,4152
2019-03-13T13:31:07.091Z,4628
2019-03-13T13:31:13.209Z,2868
2019-03-13T13:41:33.078Z,4768
2019-03-13T13:42:44.270Z,7008
2019-03-13T13:43:56.403Z,6036
2019-03-13T13:45:08.598Z,7148
2019-03-13T13:46:20.774Z,7892
2019-03-13T13:47:32.910Z,4668
2019-03-13T13:48:45.122Z,4408
2019-03-13T13:49:57.498Z,4640
2019-03-13T13:51:09.512Z,3836
2019-03-13T13:52:21.700Z,2644
2019-03-13T13:53:33.881Z,4892
2019-03-13T13:54:46.160Z,4728
2019-03-13T13:55:58.342Z,5252
2019-03-13T13:57:10.491Z,6232
2019-03-13T13:58:22.778Z,6432
2019-03-13T13:59:34.936Z,7176
2019-03-13T14:00:47.117Z,7824
2019-03-13T14:01:59.354Z,8044
2019-03-13T14:03:11.531Z,8024
2019-03-13T14:04:23.698Z,8176
2019-03-13T14:05:35.834Z,9616
2019-03-13T14:06:48.051Z,10256
2019-03-13T14:08:00.339Z,10288
2019-03-13T14:09:12.538Z,9484
2019-03-13T14:10:24.702Z,6384
2019-03-13T14:11:36.910Z,7744
2019-03-13T14:12:48.999Z,7844
2019-03-13T14:14:01.431Z,6724
2019-03-13T14:15:13.487Z,4428
2019-03-13T14:16:25.598Z,4192
2019-03-13T14:17:37.794Z,3980
2019-03-13T14:18:50.086Z,3884
2019-03-13T14:20:02.305Z,3676
2019-03-13T14:21:14.389Z,3512
2019-03-13T14:22:26.657Z,2920
2019-03-13T14:23:38.853Z,3352
2019-03-13T14:24:51.066Z,3260
2019-03-13T14:26:03.296Z,2688
2019-03-13T14:27:15.519Z,2364
2019-03-13T14:28:27.551Z,2692
2019-03-13T14:29:39.753Z,2336
2019-03-13T14:30:52.053Z,2496
2019-03-13T14:32:04.255Z,3684
2019-03-13T14:33:16.380Z,5768
2019-03-13T14:34:28.521Z,6016
2019-03-13T14:35:40.748Z,5212
2019-03-13T14:36:53.017Z,3404
2019-03-13T14:38:05.202Z,2908
2019-03-13T14:39:17.339Z,3604
2019-03-13T14:40:29.580Z,4256
2019-03-13T14:41:41.709Z,2724
2019-03-13T14:42:53.915Z,2764
2019-03-13T14:44:06.096Z,3832
2019-03-13T14:45:18.337Z,3228
2019-03-13T14:46:30.570Z,3756
2019-03-13T14:47:42.747Z,2512
2019-03-13T14:48:54.998Z,2464
2019-03-13T14:50:08.135Z,3216
2019-03-13T14:51:19.366Z,2752
2019-03-13T14:52:31.453Z,1720
2019-03-13T14:53:43.681Z,1636
2019-03-13T14:54:56.025Z,1564
2019-03-13T14:56:08.309Z,1576
2019-03-13T14:57:20.257Z,1188
2019-03-13T14:58:32.458Z,1020
2019-03-13T14:59:44.665Z,1356
2019-03-13T15:00:56.963Z,1372
2019-03-13T15:02:09.104Z,1256
2019-03-13T15:03:21.311Z,964
2019-03-13T15:04:33.448Z,884
2019-03-13T15:05:45.620Z,736
2019-03-13T15:06:57.797Z,772
2019-03-13T15:08:10.009Z,636
2019-03-13T15:09:22.283Z,592
2019-03-13T15:10:34.968Z,668
2019-03-13T15:11:46.673Z,636
2019-03-13T15:12:58.881Z,428
2019-03-13T15:14:11.080Z,288
2019-03-13T15:15:23.177Z,240
2019-03-13T15:16:35.375Z,208
2019-03-13T15:17:47.591Z,192
2019-03-13T15:18:59.842Z,220
2019-03-13T15:20:12.178Z,324
2019-03-13T15:21:24.191Z,304
2019-03-13T15:22:36.425Z,332
2019-03-13T15:23:48.538Z,348
2019-03-13T15:25:00.752Z,276
2019-03-13T15:26:13.003Z,296
2019-03-13T15:27:25.136Z,392
2019-03-13T15:28:37.375Z,524
2019-03-13T15:29:49.515Z,888
2019-03-13T15:31:01.841Z,1264
2019-03-13T15:32:13.924Z,1620
2019-03-13T15:33:26.187Z,1808
2019-03-13T15:34:38.389Z,2704
2019-03-13T15:35:55.377Z,3272
2019-03-13T15:37:04.669Z,3736
2019-03-13T15:38:15.045Z,3612
2019-03-13T15:39:27.105Z,3044
2019-03-13T15:40:39.352Z,3772
2019-03-13T15:41:51.645Z,2456
2019-03-13T15:43:03.899Z,1856
2019-03-13T15:44:15.865Z,1400
2019-03-13T15:45:28.139Z,1624
2019-03-13T15:46:40.266Z,1864
2019-03-13T15:47:52.442Z,1748
2019-03-13T15:49:04.638Z,1676
2019-03-13T15:50:16.953Z,2016
2019-03-13T15:51:29.041Z,2324
2019-03-13T15:52:41.487Z,2412
2019-03-13T15:53:53.438Z,2184
2019-03-13T15:55:05.619Z,2048
2019-03-13T15:56:17.884Z,2020
2019-03-13T15:57:30.006Z,1836
2019-03-13T15:58:42.271Z,1192
2019-03-13T15:59:54.390Z,1088
2019-03-13T16:01:06.871Z,924
2019-03-13T16:02:19.221Z,868
2019-03-13T16:03:30.997Z,820
2019-03-13T16:04:43.186Z,840
2019-03-13T16:05:59.063Z,632
2019-03-13T16:07:07.626Z,384
2019-03-13T16:08:19.799Z,272
2019-03-13T16:09:31.977Z,236
2019-03-13T16:10:44.174Z,260
2019-03-13T16:11:56.355Z,260
2019-03-13T16:13:08.609Z,260
2019-03-13T16:14:20.926Z,308
2019-03-13T16:15:33.004Z,620
2019-03-13T16:16:45.202Z,740
2019-03-13T16:17:57.328Z,648
2019-03-13T16:19:09.554Z,688
2019-03-13T16:20:21.833Z,748
2019-03-13T16:21:34.003Z,572
2019-03-13T16:22:46.240Z,240
2019-03-13T16:23:58.330Z,172
2019-03-13T16:25:10.503Z,140
2019-03-13T16:26:22.889Z,156
2019-03-13T16:27:34.972Z,160
2019-03-13T16:28:47.170Z,144
2019-03-13T16:29:59.286Z,152
2019-03-13T16:31:11.576Z,188
2019-03-13T16:32:23.797Z,244
2019-03-13T16:33:35.865Z,208
2019-03-13T16:34:48.169Z,152
2019-03-13T16:36:00.345Z,120
2019-03-13T16:37:12.466Z,96
2019-03-13T16:38:24.743Z,96
2019-03-13T16:39:36.996Z,96
2019-03-13T16:40:49.171Z,104
2019-03-13T16:42:01.472Z,112
2019-03-13T16:43:13.456Z,128
2019-03-13T16:44:25.957Z,140
2019-03-13T16:45:37.832Z,132
2019-03-13T16:46:50.060Z,124
2019-03-13T16:48:02.255Z,132
2019-03-13T16:49:14.425Z,164
2019-03-13T16:50:26.706Z,176
2019-03-13T16:51:38.808Z,132
2019-03-13T16:52:51.103Z,156
2019-03-13T16:54:03.230Z,168
2019-03-13T16:55:15.425Z,148
2019-03-13T16:56:27.583Z,164
2019-03-13T16:57:39.850Z,180
2019-03-13T16:58:51.986Z,176
2019-03-13T17:00:04.193Z,176